sensor_id;sensor_type;location;lat;lon;timestamp;pressure;altitude;pressure_sealevel;temperature;humidity
71907;BME280;59781;52.090;5.030;2022-11-20T00:02:22;101344.63;;;-1.85;89.07
71907;BME280;59781;52.090;5.030;2022-11-20T00:04:48;101340.66;;;-1.76;89.01
71907;BME280;59781;52.090;5.030;2022-11-20T00:07:54;101349.66;;;-1.97;89.19
71907;BME280;59781;52.090;5.030;2022-11-20T00:11:46;101344.44;;;-1.82;89.32
71907;BME280;59781;52.090;5.030;2022-11-20T00:15:01;101355.38;;;-2.07;88.98
71907;BME280;59781;52.090;5.030;2022-11-20T00:17:27;101350.84;;;-2.03;88.88
71907;BME280;59781;52.090;5.030;2022-11-20T00:19:53;101350.66;;;-2.17;89.46
71907;BME280;59781;52.090;5.030;2022-11-20T00:22:40;101345.47;;;-2.19;90.15
71907;BME280;59781;52.090;5.030;2022-11-20T00:25:06;101340.88;;;-2.33;89.78
71907;BME280;59781;52.090;5.030;2022-11-20T00:28:59;101334.06;;;-2.02;89.73
71907;BME280;59781;52.090;5.030;2022-11-20T00:31:46;101324.06;;;-1.95;89.22
71907;BME280;59781;52.090;5.030;2022-11-20T00:39:42;101317.66;;;-1.91;87.53
71907;BME280;59781;52.090;5.030;2022-11-20T00:42:16;101326.63;;;-2.11;88.63
71907;BME280;59781;52.090;5.030;2022-11-20T00:44:45;101323.13;;;-2.12;89.31
71907;BME280;59781;52.090;5.030;2022-11-20T00:47:39;101322.91;;;-2.24;89.09
71907;BME280;59781;52.090;5.030;2022-11-20T00:50:53;101315.97;;;-2.27;89.21
71907;BME280;59781;52.090;5.030;2022-11-20T00:54:38;101319.06;;;-2.36;89.29
71907;BME280;59781;52.090;5.030;2022-11-20T00:57:03;101322.63;;;-2.37;89.25
71907;BME280;59781;52.090;5.030;2022-11-20T01:00:01;101322.97;;;-2.43;90.38
71907;BME280;59781;52.090;5.030;2022-11-20T01:04:16;101320.16;;;-2.40;90.71
71907;BME280;59781;52.090;5.030;2022-11-20T01:06:42;101326.00;;;-2.34;89.42
71907;BME280;59781;52.090;5.030;2022-11-20T01:09:19;101319.56;;;-2.45;90.58
71907;BME280;59781;52.090;5.030;2022-11-20T01:12:51;101321.34;;;-2.46;89.80
71907;BME280;59781;52.090;5.030;2022-11-20T01:15:36;101317.75;;;-2.62;90.45
71907;BME280;59781;52.090;5.030;2022-11-20T01:18:02;101325.34;;;-2.56;89.94
71907;BME280;59781;52.090;5.030;2022-11-20T01:20:29;101310.00;;;-2.65;90.55
71907;BME280;59781;52.090;5.030;2022-11-20T01:24:23;101315.13;;;-2.45;90.16
71907;BME280;59781;52.090;5.030;2022-11-20T01:35:06;101313.25;;;-2.60;89.73
71907;BME280;59781;52.090;5.030;2022-11-20T01:38:09;101314.78;;;-2.56;89.55
71907;BME280;59781;52.090;5.030;2022-11-20T01:43:10;101314.34;;;-2.64;90.76
71907;BME280;59781;52.090;5.030;2022-11-20T01:47:02;101312.56;;;-2.64;90.92
71907;BME280;59781;52.090;5.030;2022-11-20T01:51:50;101306.88;;;-2.73;90.70
71907;BME280;59781;52.090;5.030;2022-11-20T01:55:13;101309.63;;;-2.76;90.99
71907;BME280;59781;52.090;5.030;2022-11-20T01:58:07;101297.25;;;-2.74;90.65
71907;BME280;59781;52.090;5.030;2022-11-20T02:01:53;101286.28;;;-2.65;90.54
71907;BME280;59781;52.090;5.030;2022-11-20T02:04:20;101284.47;;;-2.65;90.80
71907;BME280;59781;52.090;5.030;2022-11-20T02:06:55;101280.66;;;-2.59;90.19
71907;BME280;59781;52.090;5.030;2022-11-20T02:09:25;101288.19;;;-2.69;90.14
71907;BME280;59781;52.090;5.030;2022-11-20T02:11:52;101278.41;;;-2.67;90.67
71907;BME280;59781;52.090;5.030;2022-11-20T02:14:37;101275.94;;;-2.70;90.46
71907;BME280;59781;52.090;5.030;2022-11-20T02:18:19;101285.47;;;-2.67;89.70
71907;BME280;59781;52.090;5.030;2022-11-20T02:28:35;101295.41;;;-2.72;89.86
71907;BME280;59781;52.090;5.030;2022-11-20T02:31:01;101300.25;;;-2.82;90.32
71907;BME280;59781;52.090;5.030;2022-11-20T02:33:27;101298.06;;;-2.91;90.15
71907;BME280;59781;52.090;5.030;2022-11-20T02:35:53;101305.34;;;-2.96;90.35
71907;BME280;59781;52.090;5.030;2022-11-20T02:42:19;101288.75;;;-3.17;90.95
71907;BME280;59781;52.090;5.030;2022-11-20T02:45:25;101292.06;;;-3.12;90.61
71907;BME280;59781;52.090;5.030;2022-11-20T02:49:24;101285.09;;;-3.13;91.19
71907;BME280;59781;52.090;5.030;2022-11-20T02:51:51;101289.50;;;-3.13;90.18
71907;BME280;59781;52.090;5.030;2022-11-20T05:06:51;101171.13;;;-3.71;91.39
71907;BME280;59781;52.090;5.030;2022-11-20T05:09:17;101169.78;;;-3.80;91.54
71907;BME280;59781;52.090;5.030;2022-11-20T05:13:33;101163.66;;;-3.62;91.52
71907;BME280;59781;52.090;5.030;2022-11-20T05:21:01;101153.75;;;-3.57;91.75
71907;BME280;59781;52.090;5.030;2022-11-20T05:23:30;101157.13;;;-3.36;91.07
71907;BME280;59781;52.090;5.030;2022-11-20T05:25:57;101162.31;;;-3.34;90.28
71907;BME280;59781;52.090;5.030;2022-11-20T05:28:45;101156.88;;;-3.49;90.67
71907;BME280;59781;52.090;5.030;2022-11-20T05:32:36;101153.41;;;-3.68;90.98
71907;BME280;59781;52.090;5.030;2022-11-20T05:35:01;101153.41;;;-3.68;91.02
71907;BME280;59781;52.090;5.030;2022-11-20T05:37:48;101159.19;;;-3.79;90.79
71907;BME280;59781;52.090;5.030;2022-11-20T05:45:51;101183.34;;;-3.89;91.66
71907;BME280;59781;52.090;5.030;2022-11-20T05:50:01;101175.72;;;-3.95;91.39
71907;BME280;59781;52.090;5.030;2022-11-20T05:52:47;101176.16;;;-3.86;90.56
71907;BME280;59781;52.090;5.030;2022-11-20T05:55:13;101193.31;;;-3.77;90.26
71907;BME280;59781;52.090;5.030;2022-11-20T05:58:37;101194.94;;;-3.75;90.49
71907;BME280;59781;52.090;5.030;2022-11-20T06:06:33;101188.50;;;-3.31;92.17
71907;BME280;59781;52.090;5.030;2022-11-20T06:14:23;101173.28;;;-3.07;92.38
71907;BME280;59781;52.090;5.030;2022-11-20T06:16:49;101177.28;;;-3.18;91.90
71907;BME280;59781;52.090;5.030;2022-11-20T06:19:39;101168.38;;;-3.15;91.95
71907;BME280;59781;52.090;5.030;2022-11-20T06:22:04;101171.66;;;-3.10;91.68
71907;BME280;59781;52.090;5.030;2022-11-20T06:24:30;101164.66;;;-2.76;91.59
71907;BME280;59781;52.090;5.030;2022-11-20T06:26:56;101157.47;;;-2.90;91.15
71907;BME280;59781;52.090;5.030;2022-11-20T06:29:22;101164.44;;;-2.72;91.65
71907;BME280;59781;52.090;5.030;2022-11-20T06:33:42;101164.75;;;-2.78;90.84
71907;BME280;59781;52.090;5.030;2022-11-20T06:37:01;101155.84;;;-2.93;90.64
71907;BME280;59781;52.090;5.030;2022-11-20T06:40:25;101154.50;;;-3.19;91.45
71907;BME280;59781;52.090;5.030;2022-11-20T06:42:54;101158.44;;;-3.27;92.58
71907;BME280;59781;52.090;5.030;2022-11-20T06:45:44;101164.97;;;-3.17;93.23
71907;BME280;59781;52.090;5.030;2022-11-20T06:48:41;101164.19;;;-3.19;93.86
71907;BME280;59781;52.090;5.030;2022-11-20T06:51:30;101153.16;;;-3.44;94.89
71907;BME280;59781;52.090;5.030;2022-11-20T06:54:55;101143.53;;;-3.09;94.89
71907;BME280;59781;52.090;5.030;2022-11-20T06:57:27;101148.03;;;-2.94;94.63
71907;BME280;59781;52.090;5.030;2022-11-20T07:00:44;101154.31;;;-2.46;92.13
71907;BME280;59781;52.090;5.030;2022-11-20T07:03:11;101138.72;;;-2.34;92.05
71907;BME280;59781;52.090;5.030;2022-11-20T07:06:31;101140.66;;;-2.88;93.19
71907;BME280;59781;52.090;5.030;2022-11-20T07:08:56;101149.00;;;-2.62;93.84
71907;BME280;59781;52.090;5.030;2022-11-20T07:11:48;101138.41;;;-2.78;93.23
71907;BME280;59781;52.090;5.030;2022-11-20T07:14:46;101140.94;;;-2.59;94.06
71907;BME280;59781;52.090;5.030;2022-11-20T07:17:31;101144.94;;;-2.35;93.59
71907;BME280;59781;52.090;5.030;2022-11-20T07:21:28;101132.72;;;-2.53;94.08
71907;BME280;59781;52.090;5.030;2022-11-20T07:25:03;101126.75;;;-2.23;93.15
71907;BME280;59781;52.090;5.030;2022-11-20T07:27:57;101130.56;;;-2.29;92.53
71907;BME280;59781;52.090;5.030;2022-11-20T07:31:31;101124.81;;;-2.04;93.21
71907;BME280;59781;52.090;5.030;2022-11-20T07:33:57;101126.00;;;-2.10;93.25
71907;BME280;59781;52.090;5.030;2022-11-20T07:36:44;101125.41;;;-1.67;91.16
71907;BME280;59781;52.090;5.030;2022-11-20T07:39:32;101134.44;;;-1.71;91.84
71907;BME280;59781;52.090;5.030;2022-11-20T07:41:58;101136.72;;;-1.50;90.66
71907;BME280;59781;52.090;5.030;2022-11-20T07:44:23;101145.25;;;-1.60;91.95
71907;BME280;59781;52.090;5.030;2022-11-20T07:47:42;101135.53;;;-1.44;91.58
71907;BME280;59781;52.090;5.030;2022-11-20T07:50:30;101121.06;;;-1.07;90.73
71907;BME280;59781;52.090;5.030;2022-11-20T07:53:57;101116.09;;;-0.83;88.36
71907;BME280;59781;52.090;5.030;2022-11-20T07:56:23;101123.63;;;-1.51;90.34
71907;BME280;59781;52.090;5.030;2022-11-20T07:58:48;101125.06;;;-1.61;92.36
71907;BME280;59781;52.090;5.030;2022-11-20T08:01:14;101125.97;;;-1.31;91.98
71907;BME280;59781;52.090;5.030;2022-11-20T08:03:40;101130.31;;;-1.30;91.71
71907;BME280;59781;52.090;5.030;2022-11-20T08:06:06;101129.88;;;-1.22;91.57
71907;BME280;59781;52.090;5.030;2022-11-20T08:08:32;101126.78;;;-0.84;90.28
71907;BME280;59781;52.090;5.030;2022-11-20T08:10:58;101130.91;;;-0.95;90.56
71907;BME280;59781;52.090;5.030;2022-11-20T08:14:03;101126.44;;;-0.50;88.81
71907;BME280;59781;52.090;5.030;2022-11-20T08:16:49;101127.22;;;-0.48;88.81
71907;BME280;59781;52.090;5.030;2022-11-20T08:19:17;101131.72;;;-0.21;87.40
71907;BME280;59781;52.090;5.030;2022-11-20T08:22:07;101118.78;;;-0.54;88.00
71907;BME280;59781;52.090;5.030;2022-11-20T08:24:32;101120.03;;;-0.32;88.72
71907;BME280;59781;52.090;5.030;2022-11-20T08:26:59;101113.69;;;-0.43;88.28
71907;BME280;59781;52.090;5.030;2022-11-20T08:29:28;101112.28;;;-0.35;88.29
71907;BME280;59781;52.090;5.030;2022-11-20T08:31:54;101112.59;;;-0.83;89.36
71907;BME280;59781;52.090;5.030;2022-11-20T08:34:20;101114.94;;;-0.93;91.71
71907;BME280;59781;52.090;5.030;2022-11-20T08:36:46;101123.53;;;-0.45;89.33
71907;BME280;59781;52.090;5.030;2022-11-20T08:39:12;101130.38;;;-0.71;89.20
71907;BME280;59781;52.090;5.030;2022-11-20T08:42:49;101130.53;;;-0.59;89.32
71907;BME280;59781;52.090;5.030;2022-11-20T08:45:17;101128.19;;;-0.79;89.59
71907;BME280;59781;52.090;5.030;2022-11-20T08:48:40;101127.41;;;-0.37;88.98
71907;BME280;59781;52.090;5.030;2022-11-20T08:51:06;101127.88;;;-0.44;88.66
71907;BME280;59781;52.090;5.030;2022-11-20T08:53:32;101124.19;;;-0.42;89.03
71907;BME280;59781;52.090;5.030;2022-11-20T08:55:58;101128.63;;;-0.56;89.04
71907;BME280;59781;52.090;5.030;2022-11-20T08:58:24;101117.47;;;-0.47;89.18
71907;BME280;59781;52.090;5.030;2022-11-20T09:00:50;101110.16;;;-0.01;87.38
71907;BME280;59781;52.090;5.030;2022-11-20T09:03:16;101103.66;;;0.05;86.12
71907;BME280;59781;52.090;5.030;2022-11-20T09:05:45;101102.53;;;-0.20;87.29
71907;BME280;59781;52.090;5.030;2022-11-20T09:08:31;101112.91;;;-0.03;87.49
71907;BME280;59781;52.090;5.030;2022-11-20T09:11:03;101097.06;;;0.24;86.88
71907;BME280;59781;52.090;5.030;2022-11-20T09:13:30;101099.13;;;0.61;86.10
71907;BME280;59781;52.090;5.030;2022-11-20T09:16:00;101088.06;;;0.27;85.31
71907;BME280;59781;52.090;5.030;2022-11-20T09:18:38;101086.44;;;0.78;84.34
71907;BME280;59781;52.090;5.030;2022-11-20T09:21:12;101086.84;;;0.33;87.25
71907;BME280;59781;52.090;5.030;2022-11-20T09:23:48;101078.22;;;0.96;85.37
71907;BME280;59781;52.090;5.030;2022-11-20T09:26:14;101075.81;;;1.18;83.44
71907;BME280;59781;52.090;5.030;2022-11-20T09:28:40;101079.94;;;1.35;83.08
71907;BME280;59781;52.090;5.030;2022-11-20T09:31:09;101081.72;;;0.96;82.50
71907;BME280;59781;52.090;5.030;2022-11-20T09:33:50;101059.16;;;0.64;84.80
71907;BME280;59781;52.090;5.030;2022-11-20T09:36:15;101052.94;;;0.77;84.62
71907;BME280;59781;52.090;5.030;2022-11-20T09:39:02;101053.03;;;0.63;84.93
71907;BME280;59781;52.090;5.030;2022-11-20T09:47:24;101039.13;;;0.60;84.76
71907;BME280;59781;52.090;5.030;2022-11-20T09:56:02;101039.00;;;1.39;81.55
71907;BME280;59781;52.090;5.030;2022-11-20T09:58:57;101046.75;;;1.29;82.60
71907;BME280;59781;52.090;5.030;2022-11-20T10:01:36;101050.56;;;1.38;83.02
71907;BME280;59781;52.090;5.030;2022-11-20T10:04:15;101051.94;;;1.18;84.13
71907;BME280;59781;52.090;5.030;2022-11-20T10:07:16;101051.59;;;0.97;81.48
71907;BME280;59781;52.090;5.030;2022-11-20T10:11:01;101031.31;;;0.83;83.11
71907;BME280;59781;52.090;5.030;2022-11-20T10:17:40;101015.41;;;0.96;83.83
71907;BME280;59781;52.090;5.030;2022-11-20T10:21:00;101023.06;;;1.26;83.54
71907;BME280;59781;52.090;5.030;2022-11-20T10:27:59;100995.91;;;1.10;84.00
71907;BME280;59781;52.090;5.030;2022-11-20T10:30:42;100995.47;;;1.41;82.75
71907;BME280;59781;52.090;5.030;2022-11-20T10:33:47;100977.84;;;1.28;83.56
71907;BME280;59781;52.090;5.030;2022-11-20T10:37:32;100967.91;;;1.19;84.42
71907;BME280;59781;52.090;5.030;2022-11-20T10:40:03;100968.72;;;1.32;83.71
71907;BME280;59781;52.090;5.030;2022-11-20T10:43:02;100954.28;;;1.36;84.50
71907;BME280;59781;52.090;5.030;2022-11-20T10:46:03;100947.22;;;1.84;83.69
71907;BME280;59781;52.090;5.030;2022-11-20T10:48:37;100951.88;;;1.57;85.20
71907;BME280;59781;52.090;5.030;2022-11-20T10:52:07;100936.13;;;1.79;84.75
71907;BME280;59781;52.090;5.030;2022-11-20T11:00:17;100902.56;;;2.13;85.24
71907;BME280;59781;52.090;5.030;2022-11-20T11:11:26;100893.00;;;1.52;90.63
71907;BME280;59781;52.090;5.030;2022-11-20T11:14:16;100878.66;;;1.78;90.93
71907;BME280;59781;52.090;5.030;2022-11-20T11:17:02;100881.16;;;2.04;91.02
71907;BME280;59781;52.090;5.030;2022-11-20T11:19:27;100876.28;;;1.62;92.72
71907;BME280;59781;52.090;5.030;2022-11-20T11:21:54;100865.22;;;2.04;92.32
71907;BME280;59781;52.090;5.030;2022-11-20T11:24:25;100854.28;;;2.19;90.88
71907;BME280;59781;52.090;5.030;2022-11-20T11:27:34;100861.59;;;2.05;92.62
71907;BME280;59781;52.090;5.030;2022-11-20T11:31:07;100859.84;;;1.57;93.86
71907;BME280;59781;52.090;5.030;2022-11-20T11:33:33;100850.84;;;2.06;93.20
71907;BME280;59781;52.090;5.030;2022-11-20T11:36:02;100850.78;;;2.08;94.07
71907;BME280;59781;52.090;5.030;2022-11-20T11:38:42;100848.28;;;2.40;92.42
71907;BME280;59781;52.090;5.030;2022-11-20T11:41:51;100842.03;;;2.52;92.85
71907;BME280;59781;52.090;5.030;2022-11-20T11:44:46;100836.56;;;2.31;93.46
71907;BME280;59781;52.090;5.030;2022-11-20T11:55:07;100818.25;;;2.04;96.56
71907;BME280;59781;52.090;5.030;2022-11-20T12:03:29;100806.44;;;1.97;98.22
71907;BME280;59781;52.090;5.030;2022-11-20T12:08:26;100796.31;;;2.24;96.31
71907;BME280;59781;52.090;5.030;2022-11-20T12:10:43;100789.16;;;2.03;98.52
71907;BME280;59781;52.090;5.030;2022-11-20T12:16:11;100769.63;;;2.26;98.22
71907;BME280;59781;52.090;5.030;2022-11-20T12:18:58;100765.16;;;2.15;98.03
71907;BME280;59781;52.090;5.030;2022-11-20T12:24:41;100750.75;;;1.95;100.00
71907;BME280;59781;52.090;5.030;2022-11-20T12:30:21;100738.25;;;2.09;99.68
71907;BME280;59781;52.090;5.030;2022-11-20T12:57:00;100695.34;;;2.58;98.92
71907;BME280;59781;52.090;5.030;2022-11-20T13:05:34;100681.47;;;2.32;100.00
71907;BME280;59781;52.090;5.030;2022-11-20T13:08:30;100688.34;;;2.23;100.00
71907;BME280;59781;52.090;5.030;2022-11-20T13:14:12;100684.72;;;2.36;100.00
71907;BME280;59781;52.090;5.030;2022-11-20T13:16:54;100686.75;;;2.54;100.00
71907;BME280;59781;52.090;5.030;2022-11-20T13:19:54;100679.25;;;2.59;100.00
71907;BME280;59781;52.090;5.030;2022-11-20T13:22:43;100670.38;;;2.27;100.00
71907;BME280;59781;52.090;5.030;2022-11-20T13:28:27;100662.38;;;2.49;100.00
71907;BME280;59781;52.090;5.030;2022-11-20T13:30:57;100662.13;;;2.52;100.00
71907;BME280;59781;52.090;5.030;2022-11-20T13:33:46;100642.59;;;2.31;100.00
71907;BME280;59781;52.090;5.030;2022-11-20T13:36:23;100657.69;;;2.74;100.00
71907;BME280;59781;52.090;5.030;2022-11-20T13:40:25;100660.94;;;2.88;100.00
71907;BME280;59781;52.090;5.030;2022-11-20T13:45:57;100643.03;;;2.91;99.89
71907;BME280;59781;52.090;5.030;2022-11-20T13:48:34;100616.41;;;2.70;100.00
71907;BME280;59781;52.090;5.030;2022-11-20T13:51:36;100602.59;;;2.33;100.00
71907;BME280;59781;52.090;5.030;2022-11-20T13:54:57;100594.03;;;2.72;100.00
71907;BME280;59781;52.090;5.030;2022-11-20T13:58:40;100605.31;;;2.53;100.00
71907;BME280;59781;52.090;5.030;2022-11-20T14:01:46;100605.34;;;2.42;100.00
71907;BME280;59781;52.090;5.030;2022-11-20T14:04:51;100604.03;;;2.48;100.00
71907;BME280;59781;52.090;5.030;2022-11-20T20:13:26;100362.69;;;4.30;100.00
71907;BME280;59781;52.090;5.030;2022-11-20T20:43:02;100386.97;;;3.79;100.00
71907;BME280;59781;52.090;5.030;2022-11-20T21:11:19;100403.81;;;4.37;100.00
71907;BME280;59781;52.090;5.030;2022-11-20T21:20:19;100419.34;;;4.32;100.00
71907;BME280;59781;52.090;5.030;2022-11-20T21:31:07;100406.63;;;4.36;100.00
71907;BME280;59781;52.090;5.030;2022-11-20T21:38:15;100425.78;;;3.81;100.00
71907;BME280;59781;52.090;5.030;2022-11-20T21:45:31;100429.63;;;4.46;100.00
71907;BME280;59781;52.090;5.030;2022-11-20T21:49:02;100423.13;;;3.91;100.00
71907;BME280;59781;52.090;5.030;2022-11-20T21:52:35;100432.00;;;4.01;100.00
71907;BME280;59781;52.090;5.030;2022-11-20T21:59:52;100440.84;;;4.21;100.00
71907;BME280;59781;52.090;5.030;2022-11-20T22:03:24;100445.28;;;3.91;100.00
71907;BME280;59781;52.090;5.030;2022-11-20T22:11:04;100445.31;;;4.20;100.00
71907;BME280;59781;52.090;5.030;2022-11-20T22:18:40;100450.94;;;4.17;100.00
71907;BME280;59781;52.090;5.030;2022-11-20T22:22:00;100449.53;;;3.94;100.00
